Lackland Air Force Base (Kelly Field Annex) Airport
KSKF : now visible

Airfield :











YOU CAN JOIN US ON...

 
LOGIN :

Register | Disclaimer

   EN    FR    IT 

 









Legend :    VFR   Marginal VFR   IFR   Intensive IFR   Very Intensive IFR
Visi :
Ceiling :
>= 8 km
>= 3000ft
5 to 8 km
1000 to 3000 ft
1500m to 5 km
500 to 1000 ft
800 to 1500m
200 to 500 ft
< 800m
< 200 ft
Symbols :   Thunderstorms  Fog  Heavy snow  Heavy precipitations  Wind > 20 kt






- Airport Elevation : 691 ft


KSKF - Lackland Air Force Base (Kelly Field Annex)

CURRENT METAR :
  • 092356Z AUTO 10004KT 10SM CLR 21/17 A2978 RMK AO2 SLP080 T02140170 10247 20191 53004

EXPIRED METARs :
  • 092256Z AUTO 11007KT 10SM CLR 23/18 A2977 RMK AO2 SLP076 T02340178
  • 092156Z AUTO 12006KT 10SM CLR 25/18 A2976 RMK AO2 SLP073 T02460180

TAF TAF KSKF
Valid from the 09 at 18:00 until the 11 at 00:00 UTC


091800Z 0918/1024 09004KT 8000 BR OVC008 QNH2982INS
BECMG 0918/0919 09005KT 9000 BR BKN012 BKN250 QNH2979INS
BECMG 0919/0920 10006KT 9999 NSW FEW020 BKN250 QNH2973INS
BECMG 1003/1004 04007KT 9999 BKN025 BKN250 QNH2985INS
BECMG 1005/1006 02018G27KT 9999 VCSH OVC020 510005 QNH2993INS
BECMG 1008/1009 02020G30KT 9000 -SHRA OVC015 520005 QNH2998INS
BECMG 1014/1015 01018G27KT 9999 -SHRA OVC015 520005 QNH3012INS
BECMG 1018/1019 01016G25KT 9999 VCSH OVC020 510003 QNH3019INS
BECMG 1022/1023 01012G18KT 9999 NSW BKN025 QNH3025INS TX25/0921Z TN07/1015Z



MET'MAP, your aeronautical weather chart ! - Copyright ORBIFLY December 2007 - Disclaimer

ORBIFLY MET'MAP TEAM :

Programming & Development : Alexandra Zaïnal
Concept & original design : Baudouin d'Aumeries
Assistance for programming : Marc-Olivier Méhu
Technical & hardware support : Manuel Goepfert

Contact : metmap@orbifly.com




SOURCES & CREDITS :

   NOAA       Earth
Advisory